F/V Adeline Stephen — FGUF — position and weather

sailwx.info

Track history (hours):
 
Tides and Currents Weather Stations Pressure Air Temp Water Temp Dewpoint Dewpoint Depression Visibility Wind Speed Wind Dir Waves Ship Positions

F/V Adeline Stephen

Last reported at 2017-Feb-22 06:33 UTC. Time now 2017-Feb-22 06:38 UTC.
Position N 47°41' W 003°25'.

Length 18 m.

Type: Fishing. MMSI: 228929000.

Date/timePositionNaut miles runAvg speedWind from/ knotsBaromVisibWave heightAir tempDewpointWater temp
2017-Feb-22 06:33N 47°41' W 003°25'  
2017-Feb-18 01:13N 47°44' W 003°22'0 0.0
2017-Feb-18 00:33N 47°44' W 003°22'0 0.1
2017-Feb-17 23:33N 47°44' W 003°22'4 3.5
2017-Feb-17 22:33N 47°41' W 003°25'5 5.2
2017-Feb-17 21:33N 47°39' W 003°32'8 7.5
2017-Feb-17 20:33N 47°32' W 003°35'4 3.4
2017-Feb-17 19:27N 47°30' W 003°40'6 3.3
2017-Feb-17 17:33N 47°27' W 003°32'4 4.0
2017-Feb-17 16:33N 47°24' W 003°28'2 2.4
2017-Feb-17 15:33N 47°22' W 003°29'4 3.7
2017-Feb-17 14:33N 47°26' W 003°30'1 1.0
2017-Feb-17 13:33N 47°25' W 003°31'4 3.6
2017-Feb-17 12:33N 47°21' W 003°29'4 3.5
2017-Feb-17 11:33N 47°25' W 003°29'2 2.1
2017-Feb-17 10:33N 47°26' W 003°32'3 3.4
2017-Feb-17 09:33N 47°23' W 003°29'1 1.2
2017-Feb-17 08:33N 47°22' W 003°27'4 3.7
2017-Feb-17 07:33N 47°26' W 003°29'4 4.0
2017-Feb-17 06:33N 47°30' W 003°30'1 1.3
2017-Feb-17 05:33N 47°30' W 003°32'3 2.9
2017-Feb-17 04:33N 47°28' W 003°35'3 3.4
2017-Feb-17 03:33N 47°31' W 003°37'4 3.6
2017-Feb-17 02:33N 47°29' W 003°41'3 3.2
2017-Feb-17 01:33N 47°28' W 003°37'2 1.7
2017-Feb-17 00:33N 47°28' W 003°39'3 2.7
2017-Feb-16 23:33N 47°30' W 003°40'3 2.9
2017-Feb-16 22:30N 47°30' W 003°36'3 3.3
2017-Feb-16 21:33N 47°27' W 003°38'3 2.7
2017-Feb-16 20:33N 47°30' W 003°41'3 3.1
2017-Feb-16 19:32N 47°32' W 003°37'4 3.2
2017-Feb-16 18:21N 47°28' W 003°35'3 3.6
2017-Feb-16 17:31N 47°26' W 003°32'4 3.8
2017-Feb-16 16:33N 47°24' W 003°28'1 0.9
2017-Feb-16 15:33N 47°23' W 003°29'4 3.7
2017-Feb-16 14:33N 47°26' W 003°33'3 3.2
2017-Feb-16 13:30N 47°24' W 003°28'2 2.1
2017-Feb-16 12:33N 47°23' W 003°30'3 1.3
2017-Feb-16 10:33N 47°21' W 003°27'3 3.1
2017-Feb-16 09:33N 47°23' W 003°31'3 2.4
2017-Feb-16 08:20N 47°21' W 003°27'3 3.7
2017-Feb-16 07:33N 47°24' W 003°28'4 3.7
2017-Feb-16 06:33N 47°27' W 003°32'4 3.7
2017-Feb-16 05:33N 47°30' W 003°32'6 5.7
2017-Feb-16 04:33N 47°34' W 003°25'7 6.8
2017-Feb-16 03:33N 47°41' W 003°22'3 3.1
2017-Feb-16 02:33N 47°44' W 003°22'2 1.6
2017-Feb-16 01:33N 47°42' W 003°22'8 8.0
2017-Feb-16 00:33N 47°38' W 003°32'7 7.5
2017-Feb-15 23:33N 47°31' W 003°34'3 0.8
2017-Feb-15 20:25N 47°28' W 003°34'2 2.8
2017-Feb-15 19:31N 47°27' W 003°31'7 3.6
2017-Feb-15 17:29N 47°20' W 003°27'3 3.0
2017-Feb-15 16:31N 47°23' W 003°29'3 3.2
2017-Feb-15 15:33N 47°20' W 003°27'2 2.1
2017-Feb-15 14:33N 47°21' W 003°29'3 3.0
2017-Feb-15 13:33N 47°20' W 003°25'1 0.3
2017-Feb-15 11:18N 47°19' W 003°24'3 3.5
2017-Feb-15 10:33N 47°21' W 003°28'2 2.2
2017-Feb-15 09:33N 47°20' W 003°25'3 3.3
2017-Feb-15 08:33N 47°23' W 003°27'4 3.6
2017-Feb-15 07:33N 47°26' W 003°28'6 6.5
2017-Feb-15 06:33N 47°32' W 003°25'8 8.5
2017-Feb-15 05:33N 47°40' W 003°22'1 1.3
2017-Feb-15 04:33N 47°42' W 003°23'8 8.2
2017-Feb-15 03:33N 47°38' W 003°33'14 6.8
2017-Feb-15 01:28N 47°25' W 003°42'12 1.1
2017-Feb-14 14:32N 47°15' W 003°53'6 1.9
2017-Feb-14 11:13N 47°09' W 003°55'7 3.3
2017-Feb-14 09:05N 47°15' W 003°52'3 3.9
2017-Feb-14 08:27N 47°18' W 003°51'10 3.2
2017-Feb-14 05:24N 47°26' W 003°44'7 8.5
2017-Feb-14 04:33N 47°32' W 003°39'8 8.4
2017-Feb-14 03:33N 47°40' W 003°32'8 7.6
2017-Feb-14 02:33N 47°43' W 003°22'1 1.0
2017-Feb-14 01:33N 47°44' W 003°22'0 0.0
2017-Feb-14 00:33N 47°44' W 003°22'0 0.0
2017-Feb-13 23:34N 47°44' W 003°22'7 6.8
2017-Feb-13 22:33N 47°40' W 003°30'5 5.2
2017-Feb-13 21:33N 47°35' W 003°33'4 3.7
2017-Feb-13 20:34N 47°32' W 003°31'4 3.8
2017-Feb-13 19:31N 47°28' W 003°29'6 2.8
2017-Feb-13 17:33N 47°23' W 003°27'3 3.0
2017-Feb-13 16:33N 47°26' W 003°29'  
Track history (hours):
 
Tides and Currents Weather Stations Pressure Air Temp Water Temp Dewpoint Dewpoint Depression Visibility Wind Speed Wind Dir Waves Ship Positions

F/V Adeline Stephen

Last reported at 2017-Feb-22 06:33 UTC. Time now 2017-Feb-22 06:38 UTC.
Position N 47°41' W 003°25'.

Length 18 m.

Type: Fishing. MMSI: 228929000.

Date/timePositionNaut miles runAvg speedWind from/ knotsBaromVisibWave heightAir tempDewpointWater temp
2017-Feb-22 06:33N 47°41' W 003°25'  
2017-Feb-18 01:13N 47°44' W 003°22'0 0.0
2017-Feb-18 00:33N 47°44' W 003°22'0 0.1
2017-Feb-17 23:33N 47°44' W 003°22'4 3.5
2017-Feb-17 22:33N 47°41' W 003°25'5 5.2
2017-Feb-17 21:33N 47°39' W 003°32'8 7.5
2017-Feb-17 20:33N 47°32' W 003°35'4 3.4
2017-Feb-17 19:27N 47°30' W 003°40'6 3.3
2017-Feb-17 17:33N 47°27' W 003°32'4 4.0
2017-Feb-17 16:33N 47°24' W 003°28'2 2.4
2017-Feb-17 15:33N 47°22' W 003°29'4 3.7
2017-Feb-17 14:33N 47°26' W 003°30'1 1.0
2017-Feb-17 13:33N 47°25' W 003°31'4 3.6
2017-Feb-17 12:33N 47°21' W 003°29'4 3.5
2017-Feb-17 11:33N 47°25' W 003°29'2 2.1
2017-Feb-17 10:33N 47°26' W 003°32'3 3.4
2017-Feb-17 09:33N 47°23' W 003°29'1 1.2
2017-Feb-17 08:33N 47°22' W 003°27'4 3.7
2017-Feb-17 07:33N 47°26' W 003°29'4 4.0
2017-Feb-17 06:33N 47°30' W 003°30'1 1.3
2017-Feb-17 05:33N 47°30' W 003°32'3 2.9
2017-Feb-17 04:33N 47°28' W 003°35'3 3.4
2017-Feb-17 03:33N 47°31' W 003°37'4 3.6
2017-Feb-17 02:33N 47°29' W 003°41'3 3.2
2017-Feb-17 01:33N 47°28' W 003°37'2 1.7
2017-Feb-17 00:33N 47°28' W 003°39'3 2.7
2017-Feb-16 23:33N 47°30' W 003°40'3 2.9
2017-Feb-16 22:30N 47°30' W 003°36'3 3.3
2017-Feb-16 21:33N 47°27' W 003°38'3 2.7
2017-Feb-16 20:33N 47°30' W 003°41'3 3.1
2017-Feb-16 19:32N 47°32' W 003°37'4 3.2
2017-Feb-16 18:21N 47°28' W 003°35'3 3.6
2017-Feb-16 17:31N 47°26' W 003°32'4 3.8
2017-Feb-16 16:33N 47°24' W 003°28'1 0.9
2017-Feb-16 15:33N 47°23' W 003°29'4 3.7
2017-Feb-16 14:33N 47°26' W 003°33'3 3.2
2017-Feb-16 13:30N 47°24' W 003°28'2 2.1
2017-Feb-16 12:33N 47°23' W 003°30'3 1.3
2017-Feb-16 10:33N 47°21' W 003°27'3 3.1
2017-Feb-16 09:33N 47°23' W 003°31'3 2.4
2017-Feb-16 08:20N 47°21' W 003°27'3 3.7
2017-Feb-16 07:33N 47°24' W 003°28'4 3.7
2017-Feb-16 06:33N 47°27' W 003°32'4 3.7
2017-Feb-16 05:33N 47°30' W 003°32'6 5.7
2017-Feb-16 04:33N 47°34' W 003°25'7 6.8
2017-Feb-16 03:33N 47°41' W 003°22'3 3.1
2017-Feb-16 02:33N 47°44' W 003°22'2 1.6
2017-Feb-16 01:33N 47°42' W 003°22'8 8.0
2017-Feb-16 00:33N 47°38' W 003°32'7 7.5
2017-Feb-15 23:33N 47°31' W 003°34'3 0.8
2017-Feb-15 20:25N 47°28' W 003°34'2 2.8
2017-Feb-15 19:31N 47°27' W 003°31'7 3.6
2017-Feb-15 17:29N 47°20' W 003°27'3 3.0
2017-Feb-15 16:31N 47°23' W 003°29'3 3.2
2017-Feb-15 15:33N 47°20' W 003°27'2 2.1
2017-Feb-15 14:33N 47°21' W 003°29'3 3.0
2017-Feb-15 13:33N 47°20' W 003°25'1 0.3
2017-Feb-15 11:18N 47°19' W 003°24'3 3.5
2017-Feb-15 10:33N 47°21' W 003°28'2 2.2
2017-Feb-15 09:33N 47°20' W 003°25'3 3.3
2017-Feb-15 08:33N 47°23' W 003°27'4 3.6
2017-Feb-15 07:33N 47°26' W 003°28'6 6.5
2017-Feb-15 06:33N 47°32' W 003°25'8 8.5
2017-Feb-15 05:33N 47°40' W 003°22'1 1.3
2017-Feb-15 04:33N 47°42' W 003°23'8 8.2
2017-Feb-15 03:33N 47°38' W 003°33'14 6.8
2017-Feb-15 01:28N 47°25' W 003°42'12 1.1
2017-Feb-14 14:32N 47°15' W 003°53'6 1.9
2017-Feb-14 11:13N 47°09' W 003°55'7 3.3
2017-Feb-14 09:05N 47°15' W 003°52'3 3.9
2017-Feb-14 08:27N 47°18' W 003°51'10 3.2
2017-Feb-14 05:24N 47°26' W 003°44'7 8.5
2017-Feb-14 04:33N 47°32' W 003°39'8 8.4
2017-Feb-14 03:33N 47°40' W 003°32'8 7.6
2017-Feb-14 02:33N 47°43' W 003°22'1 1.0
2017-Feb-14 01:33N 47°44' W 003°22'0 0.0
2017-Feb-14 00:33N 47°44' W 003°22'0 0.0
2017-Feb-13 23:34N 47°44' W 003°22'7 6.8
2017-Feb-13 22:33N 47°40' W 003°30'5 5.2
2017-Feb-13 21:33N 47°35' W 003°33'4 3.7
2017-Feb-13 20:34N 47°32' W 003°31'4 3.8
2017-Feb-13 19:31N 47°28' W 003°29'6 2.8
2017-Feb-13 17:33N 47°23' W 003°27'3 3.0
2017-Feb-13 16:33N 47°26' W 003°29'  

Dump ship's entire track history